Time;durP1;ratioP1;P1;durP2;ratioP2;P2;SDS_P1;SDS_P2;PMS_P1;PMS_P2;Temp;Humidity;BMP_temperature;BMP_pressure;BME280_temperature;BME280_humidity;BME280_pressure;Samples;Min_cycle;Max_cycle;Signal;HPM_P1;HPM_P2
2022/12/16 00:00:08;;;;;;;62.90;56.00;;;;;;;-2.59;94.95;97097.33;105302;1321;22201;-83
2022/12/16 00:03:01;;;;;;;63.20;55.50;;;;;;;-2.59;94.77;97097.05;105083;1321;23011;-82
2022/12/16 00:05:29;;;;;;;60.80;54.50;;;;;;;-2.59;94.95;97094.57;105294;1299;22301;-82
2022/12/16 00:07:57;;;;;;;65.90;58.50;;;;;;;-2.56;95.30;97098.50;105364;1308;22391;-83
2022/12/16 00:10:25;;;;;;;66.60;59.30;;;;;;;-2.55;95.36;97099.24;105340;1310;22215;-83
2022/12/16 00:12:53;;;;;;;67.70;60.40;;;;;;;-2.55;95.21;97099.36;105539;1299;22249;-82
2022/12/16 00:15:21;;;;;;;68.70;60.20;;;;;;;-2.57;95.24;97105.05;105129;1296;23430;-82
2022/12/16 00:17:49;;;;;;;70.60;62.80;;;;;;;-2.58;95.24;97109.48;105549;1299;22137;-82
2022/12/16 00:20:18;;;;;;;63.70;56.50;;;;;;;-2.54;95.34;97113.29;105280;1321;22965;-82
2022/12/16 00:22:46;;;;;;;65.60;58.70;;;;;;;-2.50;95.39;97113.05;105659;1314;22063;-83
2022/12/16 00:25:14;;;;;;;68.10;60.80;;;;;;;-2.49;95.48;97103.53;105536;1321;22122;-83
2022/12/16 00:27:42;;;;;;;72.30;64.40;;;;;;;-2.49;95.58;97109.02;105272;1303;22890;-83
2022/12/16 00:30:10;;;;;;;68.30;60.80;;;;;;;-2.50;95.47;97105.67;105530;1320;22068;-82
2022/12/16 00:32:38;;;;;;;66.40;59.60;;;;;;;-2.53;95.52;97094.80;105403;1307;22206;-82
2022/12/16 00:35:07;;;;;;;69.80;62.20;;;;;;;-2.53;95.48;97092.48;105958;1306;22198;-83
2022/12/16 00:37:35;;;;;;;73.90;63.60;;;;;;;-2.48;95.48;97096.58;105417;1293;22365;-83
2022/12/16 00:40:03;;;;;;;67.70;60.50;;;;;;;-2.42;95.35;97091.05;105427;1321;22249;-83
2022/12/16 00:42:31;;;;;;;68.00;60.80;;;;;;;-2.35;95.64;97087.55;105520;1299;22298;-83
2022/12/16 00:44:59;;;;;;;70.30;62.80;;;;;;;-2.33;95.27;97093.52;105474;1314;22190;-84
2022/12/16 00:47:27;;;;;;;73.00;65.30;;;;;;;-2.34;95.41;97087.61;105257;1321;22690;-83
2022/12/16 00:49:55;;;;;;;69.50;62.10;;;;;;;-2.38;95.46;97087.07;105325;1300;22213;-83
2022/12/16 00:52:23;;;;;;;69.60;62.10;;;;;;;-2.37;95.54;97086.77;105414;1300;22198;-83
2022/12/16 00:54:51;;;;;;;68.00;60.70;;;;;;;-2.34;95.36;97083.50;105673;1313;22134;-84
2022/12/16 00:57:21;;;;;;;73.60;65.70;;;;;;;-2.28;95.33;97083.02;105821;1301;22655;-83
2022/12/16 00:59:49;;;;;;;69.40;62.20;;;;;;;-2.26;95.54;97091.05;105266;1306;22694;-84
2022/12/16 01:02:17;;;;;;;72.40;64.60;;;;;;;-2.21;95.52;97105.20;105410;1321;22153;-83
2022/12/16 01:04:45;;;;;;;72.40;64.20;;;;;;;-2.24;95.43;97094.81;105324;1321;22441;-84
2022/12/16 01:07:14;;;;;;;69.90;62.80;;;;;;;-2.26;95.35;97089.14;105350;1322;23108;-83
2022/12/16 01:09:41;;;;;;;70.30;62.70;;;;;;;-2.26;95.47;97082.69;105308;1300;22225;-83
2022/12/16 01:12:10;;;;;;;70.80;63.10;;;;;;;-2.26;95.66;97070.82;105504;1299;22143;-84
2022/12/16 01:14:38;;;;;;;71.40;64.20;;;;;;;-2.25;95.42;97074.57;105285;1297;22245;-83
2022/12/16 01:17:06;;;;;;;75.50;67.90;;;;;;;-2.28;95.54;97061.86;105323;1292;22873;-83
2022/12/16 01:19:34;;;;;;;76.20;68.40;;;;;;;-2.31;95.46;97057.64;105247;1306;22201;-84
2022/12/16 01:22:02;;;;;;;76.10;65.00;;;;;;;-2.35;95.70;97060.05;105510;1309;22213;-83
2022/12/16 01:24:30;;;;;;;70.70;63.50;;;;;;;-2.38;95.60;97057.93;105255;1319;23255;-84
2022/12/16 01:26:58;;;;;;;72.50;65.30;;;;;;;-2.38;95.80;97054.83;105667;1324;22154;-83
2022/12/16 01:29:26;;;;;;;70.80;63.60;;;;;;;-2.41;95.66;97040.15;105653;1315;22051;-83
2022/12/16 01:31:54;;;;;;;70.80;63.60;;;;;;;-2.42;95.46;97032.80;105285;1324;22209;-82
2022/12/16 01:34:22;;;;;;;73.70;66.30;;;;;;;-2.40;95.67;97032.48;105348;1300;22165;-83
2022/12/16 01:36:50;;;;;;;77.80;69.70;;;;;;;-2.39;95.79;97027.46;105339;1306;22350;-83
2022/12/16 01:39:18;;;;;;;77.00;68.90;;;;;;;-2.38;95.90;97019.54;105358;1321;22799;-83
2022/12/16 01:41:46;;;;;;;73.90;66.20;;;;;;;-2.35;95.85;97019.27;105680;1314;22216;-83
2022/12/16 01:44:16;;;;;;;72.90;65.70;;;;;;;-2.36;95.55;97019.20;105939;1290;22051;-83
2022/12/16 01:46:49;;;;;;;72.80;65.60;;;;;;;-2.36;95.82;97014.55;105509;1321;22240;-83
2022/12/16 01:49:34;;;;;;;71.50;64.40;;;;;;;-2.33;95.77;97012.48;105395;1321;22231;-83
2022/12/16 01:52:06;;;;;;;73.40;66.20;;;;;;;-2.34;95.61;97014.01;105385;1321;22199;-83
2022/12/16 01:54:40;;;;;;;74.50;67.10;;;;;;;-2.34;95.75;97012.69;105192;1302;22238;-83
2022/12/16 01:57:12;;;;;;;75.30;67.80;;;;;;;-2.35;95.90;97007.45;105320;1321;22214;-83
2022/12/16 01:59:43;;;;;;;70.00;62.60;;;;;;;-2.34;95.89;96993.91;105663;1295;22862;-83
2022/12/16 02:02:12;;;;;;;76.40;68.80;;;;;;;-2.33;95.98;96992.22;105292;1293;22183;-84
2022/12/16 02:05:19;;;;;;;80.30;71.90;;;;;;;-2.30;95.72;96991.06;105539;1321;22220;-83
2022/12/16 02:07:29;;;;;;;78.20;70.40;;;;;;;-2.24;95.70;96986.10;105569;1306;22174;-83
2022/12/16 02:09:57;;;;;;;80.00;72.00;;;;;;;-2.24;95.71;96976.91;105554;1321;22877;-83
2022/12/16 02:12:37;;;;;;;77.10;69.50;;;;;;;-2.21;95.82;96983.07;105933;1305;22210;-81
2022/12/16 02:15:12;;;;;;;70.70;63.80;;;;;;;-2.24;95.78;96978.06;105429;1321;22218;-82
2022/12/16 02:18:08;;;;;;;73.50;66.30;;;;;;;-2.25;95.91;96975.93;105558;1315;22073;-82
2022/12/16 02:21:13;;;;;;;70.80;63.50;;;;;;;-2.26;95.76;96977.79;105261;1321;22234;-81
2022/12/16 02:23:47;;;;;;;;;;;;;;;-2.24;95.61;96976.00;105533;1307;22344;-82
2022/12/16 02:26:49;;;;;;;71.50;64.70;;;;;;;-2.26;95.98;96970.68;105431;1321;22276;-82
2022/12/16 02:30:10;;;;;;;77.10;69.80;;;;;;;-2.26;96.02;96965.97;105683;1300;22163;-82
2022/12/16 02:32:53;;;;;;;71.10;64.00;;;;;;;-2.28;96.00;96966.50;105131;1300;22303;-82
2022/12/16 02:35:55;;;;;;;70.10;62.80;;;;;;;-2.27;95.85;96961.81;105516;1299;22249;-82
2022/12/16 02:38:31;;;;;;;71.60;64.40;;;;;;;-2.28;95.81;96951.52;105488;1321;22187;-82
2022/12/16 02:41:05;;;;;;;67.30;61.00;;;;;;;-2.26;95.88;96944.89;105031;1321;22204;-82
2022/12/16 02:43:33;;;;;;;69.40;62.60;;;;;;;-2.21;95.85;96943.65;105378;1299;22301;-82
2022/12/16 02:46:05;;;;;;;66.40;60.10;;;;;;;-2.21;95.92;96940.31;105779;1289;22237;-82
2022/12/16 02:48:33;;;;;;;67.60;60.90;;;;;;;-2.23;96.00;96933.54;105293;1315;22192;-82
2022/12/16 02:51:01;;;;;;;68.60;62.00;;;;;;;-2.28;96.05;96932.30;105389;1296;22201;-83
2022/12/16 02:53:34;;;;;;;61.50;55.60;;;;;;;-2.35;95.66;96934.42;105517;1295;22209;-82
2022/12/16 02:56:29;;;;;;;64.00;58.00;;;;;;;-2.38;95.83;96932.04;105405;1317;22861;-82
2022/12/16 02:59:06;;;;;;;62.90;56.80;;;;;;;-2.39;95.98;96919.23;105134;1309;22800;-82
2022/12/16 03:01:45;;;;;;;61.20;55.40;;;;;;;-2.36;96.10;96915.63;105499;1297;22860;-82
2022/12/16 03:04:22;;;;;;;60.50;54.90;;;;;;;-2.33;95.93;96912.87;105300;1296;22209;-82
2022/12/16 03:06:53;;;;;;;64.00;58.10;;;;;;;-2.33;96.16;96915.73;105597;1293;22821;-82
2022/12/16 03:09:25;;;;;;;60.50;54.70;;;;;;;-2.35;96.21;96918.86;105309;1324;22853;-82
2022/12/16 03:11:56;;;;;;;62.10;56.20;;;;;;;-2.35;96.24;96916.99;105083;1302;22070;-82
2022/12/16 03:14:27;;;;;;;58.50;52.90;;;;;;;-2.36;96.04;96920.78;105489;1292;22270;-82
2022/12/16 03:16:56;;;;;;;55.60;50.40;;;;;;;-2.37;96.05;96919.34;105248;1321;22212;-82
2022/12/16 03:19:26;;;;;;;55.80;50.40;;;;;;;-2.34;96.10;96914.33;105253;1292;22752;-82
2022/12/16 03:22:01;;;;;;;55.70;50.80;;;;;;;-2.28;96.18;96915.52;105283;1321;22094;-82
2022/12/16 03:24:29;;;;;;;58.40;52.70;;;;;;;-2.25;96.13;96910.86;105927;1314;22237;-82
2022/12/16 03:27:10;;;;;;;58.60;53.20;;;;;;;-2.29;96.18;96908.02;105275;1324;22242;-82
2022/12/16 03:29:57;;;;;;;55.30;50.10;;;;;;;-2.33;96.08;96903.22;105334;1316;22201;-83
2022/12/16 03:32:31;;;;;;;53.90;48.80;;;;;;;-2.36;96.06;96899.15;105312;1297;22841;-82
2022/12/16 03:35:29;;;;;;;54.00;49.00;;;;;;;-2.37;96.07;96891.05;105953;1307;22401;-82
2022/12/16 03:38:00;;;;;;;54.60;49.70;;;;;;;-2.36;96.01;96888.11;105174;1321;22243;-82
2022/12/16 03:40:30;;;;;;;58.40;53.00;;;;;;;-2.38;96.17;96871.67;105117;1322;22195;-82
2022/12/16 03:43:00;;;;;;;54.80;49.90;;;;;;;-2.38;96.20;96862.45;105329;1321;22172;-82
2022/12/16 03:45:36;;;;;;;55.60;50.60;;;;;;;-2.39;96.19;96863.90;105578;1307;22070;-82
2022/12/16 03:48:07;;;;;;;53.20;48.30;;;;;;;-2.41;96.14;96860.06;105256;1321;22259;-82
2022/12/16 03:50:36;;;;;;;56.50;51.30;;;;;;;-2.39;96.19;96857.56;105442;1293;22270;-83
2022/12/16 03:53:06;;;;;;;51.70;47.00;;;;;;;-2.37;96.03;96850.44;105964;1298;22134;-82
2022/12/16 03:55:34;;;;;;;52.00;47.40;;;;;;;-2.35;96.11;96841.86;105500;1321;22101;-82
2022/12/16 03:58:02;;;;;;;51.90;47.30;;;;;;;-2.36;95.95;96835.83;105063;1299;22304;-82
2022/12/16 04:00:30;;;;;;;52.40;47.80;;;;;;;-2.36;96.07;96835.67;105631;1298;22249;-82
2022/12/16 04:02:58;;;;;;;68.70;62.10;;;;;;;-2.39;96.26;96828.67;105285;1321;22281;-83
2022/12/16 04:05:27;;;;;;;56.70;51.50;;;;;;;-2.38;96.25;96819.77;105844;1299;22186;-82
2022/12/16 04:07:55;;;;;;;49.70;45.20;;;;;;;-2.38;96.02;96814.48;105536;1297;22200;-82
2022/12/16 04:24:28;;;;;;;42.10;38.40;;;;;;;-2.25;96.31;96798.45;105559;1321;22196;-83
2022/12/16 04:34:24;;;;;;;42.30;38.60;;;;;;;-2.20;96.14;96810.88;105919;1300;22099;-83
